Time;durP1;ratioP1;P1;durP2;ratioP2;P2;SDS_P1;SDS_P2;PMS_P1;PMS_P2;Temp;Humidity;BMP_temperature;BMP_pressure;BME280_temperature;BME280_humidity;BME280_pressure;Samples;Min_cycle;Max_cycle;Signal;HPM_P1;HPM_P2
2023/08/24 00:01:52;;;;;;;2.45;0.40;;;19.50;75.50;;;;;;4912942;29;20051;-92
2023/08/24 00:04:46;;;;;;;1.05;0.40;;;19.40;75.50;;;;;;4904509;29;20058;-92
2023/08/24 00:07:57;;;;;;;2.25;0.60;;;19.40;75.60;;;;;;4907348;29;20059;-92
2023/08/24 00:10:48;;;;;;;1.13;0.40;;;19.40;75.70;;;;;;4828508;29;20089;-92
2023/08/24 00:13:23;;;;;;;1.55;0.50;;;19.40;75.80;;;;;;4883867;29;20055;-93
2023/08/24 00:16:10;;;;;;;2.30;0.47;;;19.40;75.80;;;;;;4920541;29;20492;-92
2023/08/24 00:18:50;;;;;;;1.48;0.50;;;19.40;75.90;;;;;;4906406;29;20215;-92
2023/08/24 00:21:39;;;;;;;2.45;0.55;;;19.30;76.00;;;;;;4894671;29;20433;-91
2023/08/24 00:24:06;;;;;;;2.25;0.47;;;19.30;76.20;;;;;;4920483;29;20098;-92
2023/08/24 00:26:39;;;;;;;0.70;0.40;;;19.30;76.30;;;;;;4904319;29;20099;-91
2023/08/24 00:29:07;;;;;;;1.85;0.40;;;19.20;76.40;;;;;;4912796;29;20048;-91
2023/08/24 00:31:46;;;;;;;0.77;0.40;;;19.20;76.50;;;;;;4918054;29;20056;-91
2023/08/24 00:34:28;;;;;;;0.85;0.40;;;19.20;76.60;;;;;;4898614;29;20056;-91
2023/08/24 00:37:17;;;;;;;1.23;0.50;;;19.20;76.60;;;;;;4906613;29;20142;-91
2023/08/24 00:40:18;;;;;;;1.30;0.60;;;19.20;76.60;;;;;;4895463;29;20512;-92
2023/08/24 00:43:31;;;;;;;1.42;0.50;;;19.20;76.70;;;;;;4921794;29;20143;-92
2023/08/24 00:46:03;;;;;;;2.58;0.60;;;19.20;76.70;;;;;;4920624;29;20056;-92
2023/08/24 00:48:44;;;;;;;1.05;0.60;;;19.20;76.80;;;;;;4921176;29;20047;-91
2023/08/24 00:51:21;;;;;;;0.98;0.45;;;19.20;77.00;;;;;;4890267;29;20054;-91
2023/08/24 00:54:07;;;;;;;2.13;0.52;;;19.20;77.00;;;;;;4906668;29;20081;-92
2023/08/24 00:56:47;;;;;;;2.92;0.60;;;19.20;77.10;;;;;;4904978;29;20040;-92
2023/08/24 00:59:24;;;;;;;1.47;0.57;;;19.10;77.10;;;;;;4891027;29;20052;-91
2023/08/24 01:02:06;;;;;;;1.55;0.60;;;19.10;77.20;;;;;;4900012;29;20356;-91
2023/08/24 01:04:43;;;;;;;2.47;0.55;;;19.10;77.30;;;;;;4916567;29;20069;-92
2023/08/24 01:07:18;;;;;;;1.58;0.60;;;19.10;77.40;;;;;;4904912;29;20043;-91
2023/08/24 01:09:53;;;;;;;3.50;0.55;;;19.10;77.50;;;;;;4893197;29;20123;-91
2023/08/24 01:12:53;;;;;;;1.38;0.65;;;19.10;77.60;;;;;;4905141;29;20060;-92
2023/08/24 01:15:53;;;;;;;1.58;0.57;;;19.10;77.60;;;;;;4917135;29;20052;-92
2023/08/24 01:18:26;;;;;;;2.28;0.70;;;19.10;77.70;;;;;;4872955;29;20052;-91
2023/08/24 01:20:58;;;;;;;1.42;0.60;;;19.10;77.80;;;;;;4899424;29;20055;-92
2023/08/24 01:24:03;;;;;;;2.15;0.70;;;19.10;77.90;;;;;;4902649;29;20072;-92
2023/08/24 01:26:41;;;;;;;3.60;0.70;;;19.10;78.00;;;;;;4901210;29;20107;-92
2023/08/24 01:29:10;;;;;;;1.63;0.55;;;19.10;78.80;;;;;;4900892;29;20060;-91
2023/08/24 01:31:47;;;;;;;1.25;0.65;;;19.10;78.30;;;;;;4900568;29;20492;-91
2023/08/24 01:34:17;;;;;;;1.92;0.70;;;19.10;78.40;;;;;;4908016;29;20047;-91
2023/08/24 01:36:51;;;;;;;1.48;0.68;;;19.00;78.40;;;;;;4919808;29;20088;-91
2023/08/24 01:39:42;;;;;;;4.05;1.02;;;19.00;78.50;;;;;;4905101;29;20124;-91
2023/08/24 01:42:23;;;;;;;1.75;0.70;;;19.00;78.60;;;;;;4907554;29;20055;-91
2023/08/24 01:45:13;;;;;;;1.65;0.70;;;19.00;78.70;;;;;;4920267;29;20044;-91
2023/08/24 01:47:47;;;;;;;1.60;0.70;;;19.00;78.70;;;;;;4922309;29;20051;-90
2023/08/24 01:50:18;;;;;;;1.27;0.73;;;19.00;78.80;;;;;;4924252;29;20051;-91
2023/08/24 01:52:47;;;;;;;2.42;0.80;;;19.10;78.90;;;;;;4921171;29;20107;-91
2023/08/24 01:55:19;;;;;;;1.95;0.55;;;19.10;78.90;;;;;;4904714;29;20048;-91
2023/08/24 01:57:46;;;;;;;2.43;1.00;;;19.10;79.00;;;;;;4904169;29;20048;-91
2023/08/24 02:00:15;;;;;;;2.22;1.02;;;19.10;79.00;;;;;;4923891;29;20086;-91
2023/08/24 02:02:51;;;;;;;1.55;0.70;;;19.10;79.10;;;;;;4908226;29;20131;-91
2023/08/24 02:05:19;;;;;;;1.83;0.95;;;19.10;79.00;;;;;;4908420;29;20051;-91
2023/08/24 02:07:54;;;;;;;2.20;0.90;;;19.20;79.00;;;;;;4923549;29;20047;-91
2023/08/24 02:10:24;;;;;;;2.88;0.93;;;19.20;79.00;;;;;;4907761;29;20043;-92
2023/08/24 02:12:58;;;;;;;2.90;0.90;;;19.30;79.10;;;;;;4899627;29;20049;-91
2023/08/24 02:15:25;;;;;;;2.30;1.20;;;19.30;79.20;;;;;;4903965;29;20513;-92
2023/08/24 02:17:57;;;;;;;1.33;0.70;;;19.30;79.20;;;;;;4904477;29;20044;-92
2023/08/24 02:20:25;;;;;;;1.83;0.90;;;19.30;79.20;;;;;;4912524;29;20051;-92
2023/08/24 02:22:52;;;;;;;2.33;0.88;;;19.30;79.30;;;;;;4923279;29;20378;-92
2023/08/24 02:25:22;;;;;;;2.20;1.00;;;19.30;79.30;;;;;;4908089;29;20051;-92
2023/08/24 02:27:54;;;;;;;3.20;1.00;;;19.40;79.40;;;;;;4892565;29;20047;-92
2023/08/24 02:30:27;;;;;;;1.45;0.90;;;19.40;79.40;;;;;;4908157;29;20090;-92
2023/08/24 02:33:00;;;;;;;1.90;0.70;;;19.40;79.30;;;;;;4924210;29;20134;-91
2023/08/24 02:35:33;;;;;;;3.10;0.88;;;19.40;79.30;;;;;;4907973;29;20432;-92
2023/08/24 02:38:10;;;;;;;3.00;0.80;;;19.40;79.30;;;;;;4909065;29;20051;-91
2023/08/24 02:40:38;;;;;;;2.38;1.15;;;19.40;79.40;;;;;;4901653;29;20127;-91
2023/08/24 02:43:06;;;;;;;2.92;1.13;;;19.40;79.50;;;;;;4904106;29;20067;-92
2023/08/24 02:45:33;;;;;;;1.92;0.80;;;19.40;79.60;;;;;;4903855;29;20468;-91
2023/08/24 02:48:03;;;;;;;1.75;0.80;;;19.40;79.60;;;;;;4904563;29;20127;-91
2023/08/24 02:50:33;;;;;;;2.17;1.10;;;19.40;79.70;;;;;;4906865;29;20044;-91
2023/08/24 02:53:08;;;;;;;2.88;1.13;;;19.40;79.90;;;;;;4925134;29;20048;-89
2023/08/24 02:55:35;;;;;;;2.45;1.10;;;19.40;80.00;;;;;;4890980;29;20390;-91
2023/08/24 02:58:05;;;;;;;1.88;1.00;;;19.40;80.10;;;;;;4920865;29;20161;-91
2023/08/24 03:00:38;;;;;;;2.67;0.88;;;19.40;80.30;;;;;;4911842;29;20051;-91
2023/08/24 03:03:11;;;;;;;2.20;1.05;;;19.40;80.40;;;;;;4926731;29;20106;-90
2023/08/24 03:05:38;;;;;;;2.42;0.98;;;19.40;80.50;;;;;;4926422;29;20048;-91
2023/08/24 03:08:05;;;;;;;2.13;1.08;;;19.40;80.70;;;;;;4924136;29;20052;-91
2023/08/24 03:10:46;;;;;;;2.78;0.90;;;19.30;80.70;;;;;;4907384;29;20385;-89
2023/08/24 03:13:22;;;;;;;3.03;1.33;;;19.30;81.00;;;;;;4918765;29;20048;-89
2023/08/24 03:15:54;;;;;;;2.95;1.45;;;19.30;81.20;;;;;;4918387;29;20132;-89
2023/08/24 03:18:33;;;;;;;2.60;1.52;;;19.20;81.40;;;;;;4902757;29;20131;-91
2023/08/24 03:21:04;;;;;;;2.53;1.20;;;19.10;81.50;;;;;;4905652;29;20051;-91
2023/08/24 03:23:40;;;;;;;2.55;1.42;;;19.10;81.70;;;;;;4911038;29;20047;-91
2023/08/24 03:26:13;;;;;;;1.90;0.93;;;19.10;81.80;;;;;;4886173;29;20054;-91
2023/08/24 03:28:53;;;;;;;3.00;1.23;;;19.10;81.80;;;;;;4910657;29;20398;-91
2023/08/24 03:31:25;;;;;;;2.65;1.40;;;19.10;81.90;;;;;;4909916;29;20449;-91
2023/08/24 03:34:23;;;;;;;3.78;1.65;;;19.10;82.00;;;;;;4926111;29;20105;-91
2023/08/24 03:36:56;;;;;;;2.17;1.20;;;19.00;82.10;;;;;;4925203;29;20055;-90
2023/08/24 03:39:41;;;;;;;3.30;1.83;;;19.00;82.30;;;;;;4924231;29;20482;-90
2023/08/24 03:42:11;;;;;;;4.10;1.50;;;18.90;82.50;;;;;;4923033;29;20456;-90
2023/08/24 03:44:45;;;;;;;2.78;1.35;;;18.90;82.80;;;;;;4923112;29;20062;-91
2023/08/24 03:47:12;;;;;;;2.53;1.40;;;18.80;82.90;;;;;;4922055;29;20497;-91
2023/08/24 03:49:47;;;;;;;2.38;1.08;;;18.80;83.10;;;;;;4921619;29;20150;-88
2023/08/24 03:52:15;;;;;;;3.85;1.67;;;18.80;83.30;;;;;;4925624;29;20056;-87
2023/08/24 03:54:47;;;;;;;3.53;1.50;;;18.70;83.50;;;;;;4920923;29;20464;-87
2023/08/24 03:57:23;;;;;;;3.88;1.50;;;18.70;83.70;;;;;;4910214;29;20058;-88
2023/08/24 04:00:32;;;;;;;2.47;1.33;;;18.60;83.70;;;;;;4894317;29;20492;-88
2023/08/24 04:03:11;;;;;;;2.58;1.42;;;18.60;83.90;;;;;;4901865;29;20048;-88
2023/08/24 04:05:43;;;;;;;3.25;1.50;;;18.60;84.00;;;;;;4911527;29;20058;-88
2023/08/24 04:08:37;;;;;;;2.78;1.33;;;18.60;84.70;;;;;;4919464;29;20043;-87
2023/08/24 04:11:16;;;;;;;3.25;1.38;;;18.50;84.00;;;;;;4923895;29;20048;-88
2023/08/24 04:13:46;;;;;;;2.70;1.20;;;18.50;84.10;;;;;;4914734;29;20048;-88
2023/08/24 04:16:23;;;;;;;2.97;1.58;;;18.50;84.20;;;;;;4919220;29;20518;-89
2023/08/24 04:18:54;;;;;;;2.25;1.25;;;18.50;84.40;;;;;;4891199;29;20044;-89
2023/08/24 04:21:25;;;;;;;3.50;1.53;;;18.50;84.40;;;;;;4918286;29;20047;-89
2023/08/24 04:24:01;;;;;;;2.88;1.20;;;18.50;84.60;;;;;;4906571;29;20126;-90
2023/08/24 04:26:31;;;;;;;2.33;0.90;;;18.40;84.60;;;;;;4900479;29;20047;-89
2023/08/24 04:29:16;;;;;;;2.95;1.40;;;18.40;84.70;;;;;;4888551;29;20052;-89
2023/08/24 04:32:02;;;;;;;2.72;1.52;;;18.40;84.80;;;;;;4917229;29;20047;-88
2023/08/24 04:34:46;;;;;;;4.00;1.38;;;18.40;84.80;;;;;;4902441;29;20052;-89
2023/08/24 04:37:14;;;;;;;3.50;1.48;;;18.40;84.90;;;;;;4918906;29;20052;-88
2023/08/24 04:40:16;;;;;;;3.42;1.50;;;18.40;84.90;;;;;;4916538;29;20056;-89
2023/08/24 04:42:47;;;;;;;2.55;1.48;;;18.40;85.00;;;;;;4901516;29;20040;-89
2023/08/24 04:45:23;;;;;;;4.72;1.90;;;18.30;85.00;;;;;;4897199;29;20055;-89
2023/08/24 04:47:54;;;;;;;4.20;1.87;;;18.30;85.10;;;;;;4905121;29;20060;-89
2023/08/24 04:50:29;;;;;;;2.67;1.50;;;18.30;85.20;;;;;;4922702;29;20682;-89
2023/08/24 04:52:59;;;;;;;2.60;1.20;;;18.30;85.20;;;;;;4916464;29;20051;-89
2023/08/24 04:55:29;;;;;;;2.65;1.35;;;18.30;85.30;;;;;;4916385;29;20052;-89
2023/08/24 04:58:02;;;;;;;3.25;1.63;;;18.30;85.40;;;;;;4904098;29;20413;-88
2023/08/24 05:00:33;;;;;;;2.20;1.30;;;18.30;85.40;;;;;;4907539;29;20047;-89
2023/08/24 05:03:14;;;;;;;3.72;1.77;;;18.30;85.50;;;;;;4911377;29;20576;-89
2023/08/24 05:05:51;;;;;;;3.45;1.83;;;18.30;85.50;;;;;;4905809;29;20394;-91
2023/08/24 05:08:29;;;;;;;3.22;1.60;;;18.30;85.50;;;;;;4921196;29;20531;-91
2023/08/24 05:11:33;;;;;;;3.28;1.80;;;18.30;85.60;;;;;;4910461;29;20083;-91
2023/08/24 05:18:26;;;;;;;2.83;1.33;;;18.30;85.50;;;;;;4901179;29;20067;-92
2023/08/24 05:21:14;;;;;;;5.38;1.42;;;18.30;85.50;;;;;;4905214;29;20079;-92
2023/08/24 05:23:41;;;;;;;4.55;1.75;;;18.30;85.50;;;;;;4903295;29;20052;-91
2023/08/24 05:26:15;;;;;;;2.45;1.40;;;18.40;85.50;;;;;;4902012;29;20493;-91
2023/08/24 05:28:50;;;;;;;2.25;1.13;;;18.40;85.50;;;;;;4901050;29;20052;-91
2023/08/24 05:31:37;;;;;;;2.97;1.25;;;18.50;85.50;;;;;;4901569;29;20044;-92
2023/08/24 05:34:17;;;;;;;2.38;1.40;;;18.50;85.50;;;;;;4902884;29;20500;-92
2023/08/24 05:36:50;;;;;;;3.25;1.25;;;18.50;85.40;;;;;;4886355;29;20409;-92
2023/08/24 05:39:42;;;;;;;3.33;1.58;;;18.50;85.30;;;;;;4893522;29;20054;-92
2023/08/24 05:42:21;;;;;;;3.22;1.38;;;18.60;85.40;;;;;;4905795;29;20048;-93
2023/08/24 05:45:17;;;;;;;;;;;;;;;;;;;;;
2023/08/24 05:48:11;;;;;;;3.42;1.70;;;18.70;85.30;;;;;;4907953;29;20048;-92
2023/08/24 05:50:55;;;;;;;3.15;1.63;;;18.70;85.10;;;;;;4906752;29;20115;-91
2023/08/24 05:53:30;;;;;;;3.67;2.10;;;18.70;85.00;;;;;;4921179;29;20052;-92
2023/08/24 06:00:31;;;;;;;3.67;2.22;;;18.80;85.10;;;;;;4938283;29;20392;-93
2023/08/24 06:03:10;;;;;;;2.58;1.40;;;18.80;84.80;;;;;;4922847;29;20047;-93
2023/08/24 06:05:59;;;;;;;3.25;1.70;;;18.90;84.70;;;;;;4916531;29;20116;-93
2023/08/24 06:08:30;;;;;;;3.95;1.90;;;19.00;84.70;;;;;;4907795;29;20132;-91
2023/08/24 06:11:40;;;;;;;4.32;1.55;;;19.10;84.60;;;;;;4925436;29;20054;-92
2023/08/24 06:14:24;;;;;;;2.83;1.42;;;19.10;84.40;;;;;;4908112;29;20043;-91
2023/08/24 06:16:55;;;;;;;3.80;1.98;;;19.20;84.30;;;;;;4909350;29;20058;-91
2023/08/24 06:19:27;;;;;;;3.67;2.05;;;19.30;84.20;;;;;;4901419;29;20092;-91
2023/08/24 06:21:55;;;;;;;3.28;2.08;;;19.40;84.20;;;;;;4871522;29;20076;-92
2023/08/24 06:24:25;;;;;;;3.78;2.35;;;19.40;84.00;;;;;;4905886;29;20047;-92
2023/08/24 06:26:55;;;;;;;3.17;1.80;;;19.50;84.00;;;;;;4923617;29;20082;-91
2023/08/24 06:29:22;;;;;;;2.83;1.75;;;19.60;83.80;;;;;;4894121;29;20094;-90
2023/08/24 06:31:56;;;;;;;2.97;1.73;;;19.60;83.70;;;;;;4905161;29;20056;-91
2023/08/24 06:34:25;;;;;;;3.58;1.52;;;19.70;83.50;;;;;;4882103;29;20062;-91
2023/08/24 06:36:56;;;;;;;3.50;1.63;;;19.80;83.50;;;;;;4924472;29;20059;-89
2023/08/24 06:39:28;;;;;;;3.67;1.65;;;19.90;83.40;;;;;;4913539;29;20506;-89
2023/08/24 06:41:59;;;;;;;3.30;1.60;;;19.90;83.20;;;;;;4925589;29;20048;-89
2023/08/24 06:44:28;;;;;;;2.88;1.50;;;20.00;83.10;;;;;;4897182;29;20060;-91
2023/08/24 06:46:56;;;;;;;3.40;1.35;;;20.10;82.90;;;;;;4889862;29;20407;-89
2023/08/24 06:49:28;;;;;;;3.20;1.80;;;20.20;82.90;;;;;;4907641;29;20499;-88
2023/08/24 06:51:55;;;;;;;3.83;1.80;;;20.30;82.80;;;;;;4914297;29;20044;-90
2023/08/24 06:54:23;;;;;;;3.42;1.55;;;20.30;82.50;;;;;;4920033;29;20492;-89
2023/08/24 06:56:52;;;;;;;5.00;2.67;;;20.40;82.40;;;;;;4925812;29;20115;-90
2023/08/24 06:59:22;;;;;;;3.30;1.98;;;20.40;82.30;;;;;;4923453;29;20504;-91
2023/08/24 07:01:50;;;;;;;2.67;1.52;;;20.50;82.20;;;;;;4927008;29;20143;-88
2023/08/24 07:04:18;;;;;;;2.63;1.45;;;20.60;82.10;;;;;;4888305;29;20087;-88
2023/08/24 07:06:46;;;;;;;3.63;2.05;;;20.70;81.90;;;;;;4921131;29;20052;-90
2023/08/24 07:09:20;;;;;;;3.60;1.85;;;20.80;81.80;;;;;;4906742;29;20044;-91
2023/08/24 07:11:54;;;;;;;2.78;1.30;;;20.80;81.70;;;;;;4918543;29;20075;-90
2023/08/24 07:14:24;;;;;;;3.78;1.85;;;20.90;81.60;;;;;;4902836;29;20044;-88
2023/08/24 07:16:51;;;;;;;3.08;1.90;;;21.00;81.40;;;;;;4909977;29;20048;-91
2023/08/24 07:19:24;;;;;;;4.30;2.05;;;21.10;81.30;;;;;;4921026;29;20055;-94
2023/08/24 07:21:53;;;;;;;4.38;1.83;;;21.10;81.10;;;;;;4921929;29;20048;-90
2023/08/24 07:24:26;;;;;;;3.42;1.73;;;21.20;81.00;;;;;;4918648;29;20044;-90
2023/08/24 07:27:12;;;;;;;2.92;1.63;;;21.30;80.80;;;;;;4914135;29;20055;-89
2023/08/24 07:29:42;;;;;;;3.67;1.63;;;21.40;80.70;;;;;;4921561;29;20056;-87
2023/08/24 07:32:12;;;;;;;4.60;2.67;;;21.50;80.50;;;;;;4905890;29;20100;-88
2023/08/24 07:34:40;;;;;;;3.42;2.28;;;21.50;80.40;;;;;;4910115;29;20051;-92
2023/08/24 07:37:10;;;;;;;3.22;2.00;;;21.60;80.20;;;;;;4919594;29;20043;-94
2023/08/24 07:39:38;;;;;;;4.35;2.35;;;21.70;80.00;;;;;;4907121;29;20044;-89
2023/08/24 07:42:05;;;;;;;3.30;1.80;;;21.80;79.90;;;;;;4906599;29;20067;-87
2023/08/24 07:44:33;;;;;;;2.92;1.80;;;21.80;79.70;;;;;;4920040;29;20457;-84
2023/08/24 07:47:00;;;;;;;3.10;1.65;;;21.90;79.70;;;;;;4897033;29;20118;-87
2023/08/24 07:49:27;;;;;;;4.55;2.45;;;21.90;79.60;;;;;;4905284;29;20054;-91
2023/08/24 07:51:57;;;;;;;2.67;1.67;;;22.00;79.40;;;;;;4909942;29;20485;-85
2023/08/24 07:54:27;;;;;;;5.60;2.17;;;22.10;79.30;;;;;;4892528;29;20413;-88
2023/08/24 07:56:57;;;;;;;2.53;1.65;;;22.10;79.00;;;;;;4907421;29;20069;-91
2023/08/24 07:59:27;;;;;;;5.38;2.05;;;22.20;78.90;;;;;;4909534;29;20048;-96
2023/08/24 08:02:09;;;;;;;3.45;1.88;;;22.30;78.70;;;;;;4907287;29;20044;-89
2023/08/24 08:04:36;;;;;;;4.38;2.08;;;22.40;78.50;;;;;;4905204;29;20051;-96
2023/08/24 08:07:10;;;;;;;4.88;2.58;;;22.50;78.30;;;;;;4919582;29;20063;-96
2023/08/24 08:09:40;;;;;;;4.27;1.97;;;22.60;78.10;;;;;;4920092;29;20048;-93
2023/08/24 08:12:08;;;;;;;2.72;1.45;;;22.70;78.00;;;;;;4902874;29;20048;-93
2023/08/24 08:14:44;;;;;;;3.03;1.67;;;22.80;77.90;;;;;;4902987;29;20048;-90
2023/08/24 08:17:14;;;;;;;3.47;2.13;;;23.00;77.60;;;;;;4907884;29;20599;-91
2023/08/24 08:19:41;;;;;;;5.25;1.85;;;23.10;77.40;;;;;;4902789;29;20099;-86
2023/08/24 08:22:08;;;;;;;5.07;1.90;;;23.30;77.10;;;;;;4898657;29;20055;-86
2023/08/24 08:24:39;;;;;;;3.97;1.73;;;23.50;76.80;;;;;;4908047;29;20382;-90
2023/08/24 08:27:07;;;;;;;4.75;2.22;;;23.60;76.50;;;;;;4915679;29;20139;-94
2023/08/24 08:29:35;;;;;;;5.18;2.47;;;23.70;76.20;;;;;;4916544;29;20127;-89
2023/08/24 08:32:05;;;;;;;3.90;2.35;;;23.80;76.00;;;;;;4912593;29;20051;-89
2023/08/24 08:34:35;;;;;;;3.92;2.38;;;23.90;75.80;;;;;;4919093;29;20487;-91
2023/08/24 08:37:05;;;;;;;3.08;1.75;;;24.00;75.80;;;;;;4913990;29;20048;-83
2023/08/24 08:39:33;;;;;;;4.97;2.03;;;24.00;75.70;;;;;;4906717;29;20420;-83
2023/08/24 08:42:01;;;;;;;3.92;2.20;;;24.00;75.60;;;;;;4905105;29;20075;-88
2023/08/24 08:44:32;;;;;;;3.92;1.60;;;24.10;75.60;;;;;;4916359;29;20138;-87
2023/08/24 08:47:00;;;;;;;2.83;1.80;;;24.20;75.40;;;;;;4912009;29;20056;-88
2023/08/24 08:49:31;;;;;;;3.42;2.10;;;24.20;75.30;;;;;;4908946;29;20457;-86
2023/08/24 08:51:58;;;;;;;3.30;1.73;;;24.40;75.30;;;;;;4911207;29;20048;-86
2023/08/24 08:54:26;;;;;;;3.42;1.88;;;24.40;75.10;;;;;;4901294;29;20059;-91
2023/08/24 08:56:59;;;;;;;3.05;1.80;;;24.50;74.90;;;;;;4904498;29;20071;-92
2023/08/24 08:59:30;;;;;;;3.78;2.50;;;24.60;74.80;;;;;;4930163;29;20103;-90
2023/08/24 09:02:01;;;;;;;3.95;2.17;;;24.70;74.70;;;;;;4900950;29;20074;-90
2023/08/24 09:04:32;;;;;;;3.13;1.92;;;24.70;74.60;;;;;;4888803;29;20059;-89
2023/08/24 09:07:10;;;;;;;3.72;2.47;;;24.70;74.50;;;;;;4901109;29;20052;-90
2023/08/24 09:09:38;;;;;;;4.25;2.35;;;24.80;74.40;;;;;;4888437;29;20048;-85
2023/08/24 09:12:09;;;;;;;3.70;2.10;;;24.90;74.20;;;;;;4903073;29;20484;-86
2023/08/24 09:14:41;;;;;;;2.50;1.60;;;25.00;74.00;;;;;;4903445;29;20048;-85
2023/08/24 09:17:09;;;;;;;3.90;1.75;;;25.10;73.80;;;;;;4889402;29;20142;-89
2023/08/24 09:19:39;;;;;;;2.78;1.60;;;25.20;73.70;;;;;;4915283;29;20044;-85
2023/08/24 09:22:07;;;;;;;2.50;1.50;;;25.30;73.60;;;;;;4875540;29;20054;-85
2023/08/24 09:24:36;;;;;;;2.92;1.67;;;25.40;73.60;;;;;;4902832;29;20066;-85
2023/08/24 09:27:17;;;;;;;4.25;2.05;;;25.40;73.50;;;;;;4934777;29;20565;-86
2023/08/24 09:29:54;;;;;;;3.00;2.00;;;25.40;73.30;;;;;;4903706;29;20048;-83
2023/08/24 09:32:27;;;;;;;3.08;1.88;;;25.50;73.20;;;;;;4902273;29;20139;-85
2023/08/24 09:34:54;;;;;;;4.50;1.98;;;25.50;73.20;;;;;;4893620;29;20123;-84
2023/08/24 09:37:21;;;;;;;3.55;1.88;;;25.50;73.30;;;;;;4918956;29;20044;-84
2023/08/24 09:39:49;;;;;;;4.22;2.10;;;25.50;73.20;;;;;;4903781;29;20052;-85
2023/08/24 09:42:25;;;;;;;3.40;2.30;;;25.50;73.00;;;;;;4904048;29;20055;-85
2023/08/24 09:45:04;;;;;;;3.60;2.13;;;25.70;72.80;;;;;;4903323;29;20195;-83
2023/08/24 09:47:34;;;;;;;4.22;2.15;;;25.70;72.60;;;;;;4916473;29;20051;-85
2023/08/24 09:50:02;;;;;;;3.20;1.90;;;25.80;72.50;;;;;;4910342;29;20048;-84
2023/08/24 09:52:33;;;;;;;4.65;2.60;;;25.90;72.20;;;;;;4905593;29;20092;-85
2023/08/24 09:55:05;;;;;;;4.33;2.30;;;26.00;72.00;;;;;;4899089;29;20056;-84
2023/08/24 09:57:38;;;;;;;3.85;1.95;;;26.10;71.80;;;;;;4903166;29;20353;-85
2023/08/24 10:00:10;;;;;;;3.75;1.92;;;26.20;71.70;;;;;;4912496;29;20147;-82
2023/08/24 10:02:53;;;;;;;2.47;1.55;;;26.30;71.40;;;;;;4907583;29;20110;-86
2023/08/24 10:05:23;;;;;;;3.15;1.83;;;26.40;71.10;;;;;;4903041;29;20052;-86
2023/08/24 10:08:09;;;;;;;3.00;1.60;;;26.50;71.10;;;;;;4905807;29;20051;-87
2023/08/24 10:10:39;;;;;;;3.45;1.70;;;26.50;71.00;;;;;;4913696;29;20044;-87
2023/08/24 10:13:13;;;;;;;3.33;1.80;;;26.50;71.00;;;;;;4888871;29;20055;-85
2023/08/24 10:15:46;;;;;;;2.60;1.67;;;26.50;71.10;;;;;;4912960;29;20072;-86
2023/08/24 10:18:16;;;;;;;3.45;1.90;;;26.40;71.10;;;;;;4918782;29;20056;-86
2023/08/24 10:20:45;;;;;;;2.38;1.10;;;26.30;71.20;;;;;;4917954;29;20058;-86
2023/08/24 10:23:22;;;;;;;2.58;1.70;;;26.20;71.30;;;;;;4923552;29;20094;-93
2023/08/24 10:25:54;;;;;;;3.97;1.70;;;26.10;71.30;;;;;;4922815;29;20055;-90
2023/08/24 10:28:29;;;;;;;3.30;1.92;;;26.10;71.50;;;;;;4903491;29;20054;-91
2023/08/24 10:31:04;;;;;;;3.25;1.80;;;26.00;71.60;;;;;;4919116;29;20051;-92
2023/08/24 10:33:36;;;;;;;3.45;1.73;;;25.90;71.60;;;;;;4899893;29;20048;-90
2023/08/24 10:36:13;;;;;;;2.63;1.67;;;25.90;71.70;;;;;;4906206;29;20059;-90
2023/08/24 10:39:15;;;;;;;;;;;;;;;;;;;;;
2023/08/24 10:42:47;;;;;;;2.55;1.65;;;25.80;71.70;;;;;;4932098;29;20385;-92
2023/08/24 10:50:04;;;;;;;3.78;2.05;;;25.60;72.70;;;;;;4938310;29;20295;-91
2023/08/24 10:57:13;;;;;;;2.58;1.48;;;25.20;72.80;;;;;;4881470;29;20536;-89
2023/08/24 10:59:59;;;;;;;2.63;1.60;;;25.00;73.20;;;;;;4881597;29;20052;-89
2023/08/24 11:02:55;;;;;;;2.40;1.40;;;24.90;73.50;;;;;;4881597;29;20060;-86
2023/08/24 11:05:52;;;;;;;2.65;1.25;;;24.80;73.70;;;;;;4860067;29;20068;-84
2023/08/24 11:08:19;;;;;;;2.95;1.40;;;24.80;73.80;;;;;;4890065;29;20068;-84
2023/08/24 11:10:46;;;;;;;3.28;1.42;;;24.70;73.90;;;;;;4917771;29;20059;-83
2023/08/24 11:13:16;;;;;;;2.78;1.60;;;24.70;74.60;;;;;;4890466;29;20059;-85
2023/08/24 11:15:57;;;;;;;2.65;1.23;;;24.70;74.00;;;;;;4915824;29;20134;-91
2023/08/24 11:18:31;;;;;;;2.83;1.15;;;24.80;74.10;;;;;;4916566;29;20048;-85
2023/08/24 11:21:05;;;;;;;2.13;0.80;;;24.80;74.10;;;;;;4911955;29;20048;-86
2023/08/24 11:23:35;;;;;;;3.13;1.35;;;24.80;74.10;;;;;;4903816;29;20520;-85
2023/08/24 11:26:07;;;;;;;2.75;1.00;;;24.90;74.20;;;;;;4912057;29;20488;-88
2023/08/24 11:29:29;;;;;;;2.10;1.27;;;24.90;74.20;;;;;;4911427;29;20048;-90
2023/08/24 11:32:10;;;;;;;2.28;1.23;;;24.90;74.20;;;;;;4921182;29;20051;-90
2023/08/24 11:35:05;;;;;;;3.20;1.30;;;24.80;74.20;;;;;;4831545;29;20058;-91
2023/08/24 11:42:41;;;;;;;;;;;;;;;;;;;;;
2023/08/24 11:45:42;;;;;;;3.33;1.00;;;25.20;73.80;;;;;;4841978;29;20066;-93
2023/08/24 11:48:09;;;;;;;1.90;1.00;;;25.20;73.70;;;;;;4841837;29;20050;-89
2023/08/24 11:50:39;;;;;;;2.67;1.13;;;25.30;73.70;;;;;;4825611;29;20077;-87
2023/08/24 11:53:10;;;;;;;2.42;1.30;;;25.30;73.50;;;;;;4890298;29;20056;-87
2023/08/24 11:55:40;;;;;;;3.53;1.48;;;25.30;73.50;;;;;;4917046;29;20052;-85
2023/08/24 11:58:25;;;;;;;2.33;1.00;;;25.40;73.50;;;;;;4911941;29;20500;-87
2023/08/24 12:00:53;;;;;;;2.03;1.40;;;25.30;73.50;;;;;;4917689;29;20043;-85
2023/08/24 12:03:20;;;;;;;3.08;1.40;;;25.40;73.50;;;;;;4897523;29;20056;-85
2023/08/24 12:05:47;;;;;;;2.72;1.20;;;25.50;73.40;;;;;;4884967;29;20144;-84
2023/08/24 12:08:15;;;;;;;3.75;1.65;;;25.60;73.30;;;;;;4914337;29;20056;-84
2023/08/24 12:10:49;;;;;;;3.03;1.13;;;25.60;73.00;;;;;;4896014;29;20102;-84
2023/08/24 12:13:17;;;;;;;3.28;1.38;;;25.70;72.90;;;;;;4903996;29;20063;-87
2023/08/24 12:19:27;;;;;;;3.08;1.38;;;25.90;72.50;;;;;;4920148;29;20058;-83
2023/08/24 12:22:02;;;;;;;1.90;1.08;;;25.80;72.50;;;;;;4885650;29;20044;-85
2023/08/24 12:24:30;;;;;;;2.85;1.50;;;25.90;72.60;;;;;;4895462;29;20158;-84
2023/08/24 12:27:01;;;;;;;3.28;1.55;;;25.80;72.50;;;;;;4907941;29;20044;-86
2023/08/24 12:29:31;;;;;;;2.92;1.50;;;25.90;72.50;;;;;;4903915;29;20044;-86
2023/08/24 12:32:08;;;;;;;2.35;1.50;;;25.90;72.50;;;;;;4901585;29;20138;-83
2023/08/24 12:34:38;;;;;;;3.30;1.35;;;25.90;72.50;;;;;;4910946;29;20047;-86
2023/08/24 12:37:11;;;;;;;3.45;1.33;;;25.90;72.60;;;;;;4916002;29;20056;-89
2023/08/24 12:39:39;;;;;;;2.63;1.35;;;25.80;72.60;;;;;;4911615;29;20143;-84
2023/08/24 12:42:10;;;;;;;2.85;1.13;;;25.80;72.80;;;;;;4889447;29;20054;-90
2023/08/24 12:44:37;;;;;;;3.22;1.60;;;25.70;72.90;;;;;;4904565;29;20048;-88
2023/08/24 12:47:04;;;;;;;3.80;1.63;;;25.60;73.10;;;;;;4904224;29;20051;-88
2023/08/24 12:49:40;;;;;;;4.53;1.98;;;25.60;73.20;;;;;;4935248;29;20112;-87
2023/08/24 12:52:15;;;;;;;3.03;1.00;;;25.60;73.20;;;;;;4908281;29;20078;-85
2023/08/24 12:54:54;;;;;;;2.92;1.38;;;25.50;73.30;;;;;;4919677;29;20055;-90
2023/08/24 12:57:28;;;;;;;2.72;1.35;;;25.50;73.50;;;;;;4904368;29;20072;-91
2023/08/24 12:59:56;;;;;;;4.47;1.70;;;25.50;73.60;;;;;;4897569;29;20047;-88
2023/08/24 13:02:53;;;;;;;3.53;1.30;;;25.50;73.70;;;;;;4895411;29;20132;-92
2023/08/24 13:05:25;;;;;;;1.95;1.02;;;25.50;73.60;;;;;;4901633;29;20086;-84
2023/08/24 13:07:56;;;;;;;3.83;1.25;;;25.60;73.60;;;;;;4912967;29;20047;-87
2023/08/24 13:10:34;;;;;;;2.47;1.30;;;25.70;73.60;;;;;;4913085;29;20050;-87
2023/08/24 13:13:09;;;;;;;2.58;1.27;;;25.80;73.40;;;;;;4915396;29;20084;-87
2023/08/24 13:15:39;;;;;;;4.13;1.50;;;25.80;73.20;;;;;;4905596;29;20059;-88
2023/08/24 13:19:07;;;;;;;;;;;;;;;;;;;;;
2023/08/24 13:26:43;;;;;;;3.83;1.20;;;26.30;72.60;;;;;;4824304;29;20086;-94
2023/08/24 13:34:23;;;;;;;2.55;1.10;;;26.70;71.90;;;;;;4825928;29;20069;-87
2023/08/24 13:36:51;;;;;;;2.72;1.48;;;26.80;71.70;;;;;;4807231;29;20141;-88
2023/08/24 13:39:24;;;;;;;3.40;1.20;;;26.90;71.50;;;;;;4870177;29;20188;-90
2023/08/24 13:41:56;;;;;;;3.35;1.50;;;27.00;71.30;;;;;;4865889;29;20139;-88
2023/08/24 13:44:26;;;;;;;2.55;1.40;;;27.10;71.30;;;;;;4832795;29;20046;-88
2023/08/24 13:47:47;;;;;;;3.15;1.70;;;27.20;71.20;;;;;;4869234;29;20059;-88
2023/08/24 13:50:52;;;;;;;2.65;1.50;;;27.20;70.90;;;;;;4875010;29;20124;-88
2023/08/24 14:03:14;;;;;;;3.17;1.60;;;27.10;71.20;;;;;;4862833;29;20048;-93
2023/08/24 14:06:39;;;;;;;;;;;;;;;;;;;;;
2023/08/24 14:09:39;;;;;;;3.65;1.52;;;26.80;71.40;;;;;;4840916;29;20053;-89
2023/08/24 14:17:24;;;;;;;2.65;1.50;;;26.60;71.90;;;;;;4846264;29;20045;-93
2023/08/24 14:20:46;;;;;;;2.72;1.42;;;26.40;72.20;;;;;;4830641;29;20132;-92
2023/08/24 14:32:18;;;;;;;3.40;1.80;;;26.20;72.80;;;;;;4912472;29;20074;-94
2023/08/24 14:40:00;;;;;;;2.85;1.45;;;26.00;73.10;;;;;;4901372;29;20420;-93
2023/08/24 14:42:30;;;;;;;3.08;1.40;;;25.80;73.20;;;;;;4886674;29;20059;-87
2023/08/24 14:49:28;;;;;;;4.05;1.90;;;25.80;73.50;;;;;;4861488;29;20061;-89